createdAt,value
2022-11-09T00:00:54.621Z,12.40
2022-11-09T00:05:57.950Z,10.40
2022-11-09T00:11:07.580Z,11.20
2022-11-09T00:16:13.863Z,14.30
2022-11-09T00:21:23.658Z,14.20
2022-11-09T00:26:25.677Z,12.60
2022-11-09T00:31:26.750Z,15.70
2022-11-09T00:36:29.179Z,13.70
2022-11-09T00:41:30.407Z,13.30
2022-11-09T00:46:31.981Z,15.00
2022-11-09T00:51:33.458Z,16.40
2022-11-09T00:56:34.703Z,15.30
2022-11-09T01:01:35.966Z,19.80
2022-11-09T01:06:37.160Z,18.40
2022-11-09T01:11:38.349Z,14.10
2022-11-09T01:16:40.148Z,16.30
2022-11-09T01:21:41.237Z,15.80
2022-11-09T01:26:42.356Z,17.60
2022-11-09T01:31:43.495Z,17.60
2022-11-09T01:36:44.537Z,16.50
2022-11-09T01:41:46.497Z,21.60
2022-11-09T01:46:53.016Z,20.90
2022-11-09T01:52:06.975Z,16.30
2022-11-09T01:57:14.032Z,20.30
2022-11-09T02:02:15.298Z,19.70
2022-11-09T02:07:17.579Z,14.00
2022-11-09T02:12:21.348Z,21.20
2022-11-09T02:17:24.243Z,15.50
2022-11-09T02:22:25.826Z,15.60
2022-11-09T02:27:27.151Z,15.50
2022-11-09T02:32:29.553Z,19.10
2022-11-09T02:37:38.260Z,21.40
2022-11-09T02:42:39.420Z,16.00
2022-11-09T02:47:41.008Z,17.90
2022-11-09T02:52:42.283Z,14.30
2022-11-09T02:57:43.731Z,15.80
2022-11-09T03:02:44.790Z,21.50
2022-11-09T03:07:46.101Z,23.20
2022-11-09T03:12:47.213Z,20.70
2022-11-09T03:17:48.463Z,20.80
2022-11-09T03:22:49.592Z,20.80
2022-11-09T03:27:50.733Z,22.50
2022-11-09T03:33:00.527Z,16.80
2022-11-09T03:38:03.140Z,17.80
2022-11-09T03:43:04.348Z,18.90
2022-11-09T03:48:06.171Z,26.20
2022-11-09T03:53:09.006Z,19.10
2022-11-09T03:58:12.430Z,15.20
2022-11-09T04:03:13.578Z,21.50
2022-11-09T04:08:14.694Z,19.60
2022-11-09T04:13:15.853Z,19.60
2022-11-09T04:18:17.268Z,21.80
2022-11-09T04:23:18.699Z,24.10
2022-11-09T04:28:19.977Z,18.80
2022-11-09T04:38:22.999Z,22.20
2022-11-09T04:43:24.035Z,28.80
2022-11-09T04:53:27.795Z,25.30
2022-11-09T04:58:29.905Z,17.90
2022-11-09T05:03:31.817Z,25.70
2022-11-09T05:08:32.932Z,21.80
2022-11-09T05:13:34.050Z,23.40
2022-11-09T05:18:35.156Z,27.80
2022-11-09T05:28:58.394Z,24.10
2022-11-09T05:34:00.245Z,22.70
2022-11-09T05:39:01.409Z,24.70
2022-11-09T05:44:02.701Z,27.50
2022-11-09T05:49:04.079Z,24.90
2022-11-09T05:54:05.611Z,24.50
2022-11-09T06:04:09.673Z,24.20
2022-11-09T06:09:10.818Z,26.70
2022-11-09T06:19:13.010Z,22.30
2022-11-09T06:24:14.199Z,27.60
2022-11-09T06:29:15.288Z,21.40
2022-11-09T06:49:19.803Z,22.00
2022-11-09T06:54:20.972Z,26.50
2022-11-09T06:59:22.138Z,23.10
2022-11-09T07:04:23.323Z,24.10
2022-11-09T07:09:24.749Z,21.20
2022-11-09T07:14:25.966Z,24.80
2022-11-09T07:19:29.462Z,20.80
2022-11-09T07:24:32.086Z,23.40
2022-11-09T07:29:34.711Z,25.80
2022-11-09T07:34:38.383Z,23.20
2022-11-09T07:39:41.447Z,25.70
2022-11-09T07:44:42.919Z,24.10
2022-11-09T07:49:44.610Z,22.00
2022-11-09T07:54:50.871Z,20.60
2022-11-09T07:59:53.438Z,21.10
2022-11-09T08:04:54.764Z,20.60
2022-11-09T08:09:57.928Z,24.60
2022-11-09T08:14:59.142Z,21.50
2022-11-09T08:20:01.111Z,22.70
2022-11-09T08:25:02.324Z,22.70
2022-11-09T08:30:06.476Z,21.80
2022-11-09T08:35:09.471Z,20.40
2022-11-09T08:40:10.667Z,18.50
2022-11-09T08:45:11.844Z,17.30
2022-11-09T08:50:14.706Z,19.10
2022-11-09T08:55:15.869Z,15.30
2022-11-09T09:00:18.504Z,22.20
2022-11-09T09:05:20.491Z,24.60
2022-11-09T09:10:22.919Z,18.70
2022-11-09T09:15:24.609Z,19.10
2022-11-09T09:20:26.126Z,20.20
2022-11-09T09:25:27.864Z,21.60
2022-11-09T09:30:29.056Z,22.40
2022-11-09T09:35:30.179Z,17.90
2022-11-09T09:40:37.486Z,26.30
2022-11-09T09:45:48.565Z,24.20
2022-11-09T09:50:52.765Z,19.10
2022-11-09T09:56:04.643Z,24.10
2022-11-09T10:01:29.185Z,22.90
2022-11-09T10:06:42.421Z,17.80
2022-11-09T10:12:21.822Z,18.50
2022-11-09T10:17:48.219Z,19.40
2022-11-09T10:23:23.953Z,23.20
2022-11-09T10:28:37.992Z,20.60
2022-11-09T10:33:58.608Z,21.10
2022-11-09T10:44:01.917Z,20.20
2022-11-09T10:49:20.042Z,20.10
2022-11-09T10:54:32.967Z,20.10
2022-11-09T10:59:58.389Z,22.20
2022-11-09T11:05:05.589Z,20.70
2022-11-09T11:10:15.758Z,21.40
2022-11-09T11:15:40.105Z,21.00
2022-11-09T11:20:41.328Z,19.80
2022-11-09T11:26:04.491Z,22.10
2022-11-09T11:31:13.229Z,24.70
2022-11-09T11:36:21.333Z,19.30
2022-11-09T11:41:37.029Z,22.10
2022-11-09T11:46:47.409Z,18.10
2022-11-09T11:52:13.294Z,22.70
2022-11-09T11:57:43.484Z,21.50
2022-11-09T12:03:18.003Z,19.20
2022-11-09T12:08:38.033Z,22.00
2022-11-09T12:13:56.752Z,17.60
2022-11-09T12:19:16.309Z,23.80
2022-11-09T12:24:35.560Z,18.90
2022-11-09T12:29:43.414Z,13.90
2022-11-09T12:35:20.298Z,19.70
2022-11-09T12:40:31.562Z,21.30
2022-11-09T12:45:36.763Z,19.90
2022-11-09T12:50:38.171Z,20.10
2022-11-09T12:55:58.124Z,20.50
2022-11-09T13:01:02.536Z,17.50
2022-11-09T13:06:13.235Z,14.10
2022-11-09T13:11:17.032Z,18.40
2022-11-09T13:16:37.025Z,19.70
2022-11-09T13:21:39.004Z,19.00
2022-11-09T13:26:46.180Z,17.50
2022-11-09T13:32:12.267Z,21.40
2022-11-09T13:37:50.839Z,24.20
2022-11-09T13:43:10.899Z,20.00
2022-11-09T13:48:30.780Z,16.90
2022-11-09T13:53:38.141Z,23.20
2022-11-09T13:58:42.096Z,24.60
2022-11-09T14:03:49.774Z,22.30
2022-11-09T14:08:51.501Z,21.00
2022-11-09T14:14:12.001Z,23.90
2022-11-09T14:19:44.735Z,24.90
2022-11-09T14:24:46.589Z,21.70
2022-11-09T14:29:55.405Z,19.10
2022-11-09T14:35:34.349Z,20.70
2022-11-09T14:40:35.626Z,21.90
2022-11-09T14:45:36.950Z,16.80
2022-11-09T14:50:38.648Z,26.50
2022-11-09T14:55:41.327Z,24.70
2022-11-09T15:00:46.010Z,21.90
2022-11-09T15:05:47.757Z,25.60
2022-11-09T15:10:51.709Z,22.70
2022-11-09T15:15:54.623Z,22.60
2022-11-09T15:21:35.114Z,28.00
2022-11-09T15:26:38.340Z,25.00
2022-11-09T15:31:56.247Z,26.40
2022-11-09T15:36:57.434Z,29.40
2022-11-09T15:41:58.759Z,27.10
2022-11-09T15:47:00.563Z,26.60
2022-11-09T15:52:01.820Z,25.60
2022-11-09T15:57:03.856Z,29.20
2022-11-09T16:02:04.978Z,27.50
2022-11-09T16:07:07.222Z,33.50
2022-11-09T16:12:09.512Z,30.50
2022-11-09T16:17:11.013Z,24.60
2022-11-09T16:22:12.909Z,31.00
2022-11-09T16:27:43.028Z,28.50
2022-11-09T16:32:35.990Z,27.40
2022-11-09T16:37:39.495Z,29.20
2022-11-09T16:42:40.698Z,32.00
2022-11-09T16:47:46.598Z,32.40
2022-11-09T16:52:47.712Z,30.00
2022-11-09T16:57:48.924Z,32.50
2022-11-09T17:02:50.075Z,29.00
2022-11-09T17:07:51.662Z,30.20
2022-11-09T17:12:53.541Z,31.30
2022-11-09T17:17:56.439Z,31.70
2022-11-09T17:22:57.652Z,27.70
2022-11-09T17:27:58.843Z,33.30
2022-11-09T17:32:59.971Z,31.60
2022-11-09T17:38:01.353Z,27.60
2022-11-09T17:43:03.831Z,29.60
2022-11-09T17:48:05.669Z,35.10
2022-11-09T17:53:07.127Z,25.90
2022-11-09T17:58:08.572Z,30.80
2022-11-09T18:03:09.986Z,32.00
2022-11-09T18:08:13.615Z,28.10
2022-11-09T18:13:14.880Z,28.30
2022-11-09T18:18:17.820Z,27.40
2022-11-09T18:23:19.214Z,33.30
2022-11-09T18:28:20.797Z,28.60
2022-11-09T18:33:23.331Z,28.20
2022-11-09T18:38:29.185Z,31.30
2022-11-09T18:43:31.176Z,30.30
2022-11-09T18:48:33.235Z,32.80
2022-11-09T18:53:37.068Z,32.90
2022-11-09T18:58:38.535Z,26.80
2022-11-09T19:03:40.058Z,32.60
2022-11-09T19:08:59.862Z,25.20
2022-11-09T19:14:00.960Z,27.50
2022-11-09T19:19:02.072Z,33.80
2022-11-09T19:24:07.328Z,33.90
2022-11-09T19:29:10.601Z,30.10
2022-11-09T19:34:18.788Z,29.00
2022-11-09T19:39:20.257Z,29.10
2022-11-09T19:44:21.414Z,35.20
2022-11-09T19:49:22.500Z,35.20
2022-11-09T19:54:23.682Z,32.90
2022-11-09T19:59:25.146Z,31.40
2022-11-09T20:04:28.232Z,35.60
2022-11-09T20:09:31.030Z,33.20
2022-11-09T20:14:32.205Z,26.90
2022-11-09T20:19:33.511Z,30.10
2022-11-09T20:24:34.979Z,35.80
2022-11-09T20:29:36.176Z,37.60
2022-11-09T20:34:37.286Z,36.80
2022-11-09T20:39:40.206Z,33.90
2022-11-09T20:44:41.409Z,36.90
2022-11-09T20:49:42.553Z,32.70
2022-11-09T20:54:43.765Z,30.80
2022-11-09T20:59:44.879Z,36.00
2022-11-09T21:04:46.294Z,40.20
2022-11-09T21:09:47.386Z,29.10
2022-11-09T21:14:48.602Z,35.10
2022-11-09T21:19:50.848Z,37.00
2022-11-09T21:25:11.090Z,35.00
2022-11-09T21:30:12.567Z,35.10
2022-11-09T21:35:16.704Z,33.80
2022-11-09T21:40:17.850Z,37.10
2022-11-09T21:45:22.079Z,36.90
2022-11-09T21:50:23.312Z,28.60
2022-11-09T21:55:24.501Z,39.20
2022-11-09T22:00:26.789Z,36.50
2022-11-09T22:05:28.133Z,35.40
2022-11-09T22:10:29.267Z,33.50
2022-11-09T22:15:49.194Z,30.60
2022-11-09T22:20:56.349Z,40.00
2022-11-09T22:26:00.771Z,30.00
2022-11-09T22:31:03.752Z,25.50
2022-11-09T22:36:07.228Z,31.00
2022-11-09T22:41:11.319Z,36.00
2022-11-09T22:46:14.456Z,35.10
2022-11-09T22:51:16.699Z,40.90
2022-11-09T22:56:18.228Z,35.40
2022-11-09T23:01:20.543Z,32.20
2022-11-09T23:06:22.540Z,39.20
2022-11-09T23:11:24.428Z,36.10
2022-11-09T23:16:25.878Z,33.90
2022-11-09T23:21:37.853Z,40.60
2022-11-09T23:26:38.961Z,38.60
2022-11-09T23:31:40.081Z,32.30
2022-11-09T23:36:41.312Z,36.20
2022-11-09T23:41:42.418Z,32.50
2022-11-09T23:46:43.508Z,40.70
2022-11-09T23:51:44.613Z,39.80
2022-11-09T23:56:46.062Z,34.90
